createdAt,value
2017-09-06T00:00:42.559Z,0
2017-09-06T00:01:42.529Z,0
2017-09-06T00:02:42.511Z,0
2017-09-06T00:03:42.486Z,0
2017-09-06T00:04:42.463Z,0
2017-09-06T00:05:42.445Z,0
2017-09-06T00:06:42.444Z,0
2017-09-06T00:07:42.095Z,0
2017-09-06T00:08:42.409Z,0
2017-09-06T00:09:42.362Z,0
2017-09-06T00:10:42.349Z,0
2017-09-06T00:11:42.019Z,0
2017-09-06T00:12:42.303Z,0
2017-09-06T00:13:42.283Z,0
2017-09-06T00:14:42.269Z,0
2017-09-06T00:15:41.937Z,0
2017-09-06T00:16:42.236Z,0
2017-09-06T00:17:42.215Z,0
2017-09-06T00:18:42.200Z,0
2017-09-06T00:19:41.875Z,0
2017-09-06T00:20:42.157Z,0
2017-09-06T00:21:42.131Z,0
2017-09-06T00:22:42.119Z,0
2017-09-06T00:23:42.130Z,0
2017-09-06T00:24:41.760Z,0
2017-09-06T00:25:42.049Z,0
2017-09-06T00:26:42.033Z,0
2017-09-06T00:27:42.009Z,0
2017-09-06T00:28:41.992Z,0
2017-09-06T00:29:42.024Z,0
2017-09-06T00:30:41.951Z,0
2017-09-06T00:31:41.936Z,0
2017-09-06T00:32:41.962Z,0
2017-09-06T00:33:41.941Z,0
2017-09-06T00:34:41.871Z,0
2017-09-06T00:35:41.853Z,0
2017-09-06T00:36:41.832Z,0
2017-09-06T00:37:41.504Z,0
2017-09-06T00:38:41.801Z,0
2017-09-06T00:39:41.775Z,0
2017-09-06T00:40:41.751Z,0
2017-09-06T00:41:41.734Z,0
2017-09-06T00:42:41.708Z,0
2017-09-06T00:43:41.694Z,0
2017-09-06T00:44:41.680Z,0
2017-09-06T00:45:41.689Z,0
2017-09-06T00:46:41.640Z,0
2017-09-06T00:47:41.307Z,0
2017-09-06T00:48:41.601Z,0
2017-09-06T00:49:41.592Z,0
2017-09-06T00:50:41.549Z,0
2017-09-06T00:51:41.531Z,0
2017-09-06T00:52:41.510Z,0
2017-09-06T00:53:41.492Z,0
2017-09-06T00:54:41.486Z,0
2017-09-06T00:55:41.455Z,0
2017-09-06T00:56:41.432Z,0
2017-09-06T00:57:41.422Z,0
2017-09-06T00:58:41.434Z,0
2017-09-06T00:59:41.434Z,0
2017-09-06T01:00:41.357Z,0
2017-09-06T01:01:41.453Z,0
2017-09-06T01:02:41.312Z,0
2017-09-06T01:03:41.401Z,0
2017-09-06T01:04:40.973Z,0
2017-09-06T01:05:41.262Z,0
2017-09-06T01:06:41.243Z,0
2017-09-06T01:07:41.216Z,0
2017-09-06T01:08:41.201Z,0
2017-09-06T01:09:41.183Z,0
2017-09-06T01:10:41.154Z,0
2017-09-06T01:11:41.147Z,0
2017-09-06T01:12:41.480Z,0
2017-09-06T01:13:41.097Z,0
2017-09-06T01:14:41.073Z,0
2017-09-06T01:15:41.060Z,0
2017-09-06T01:16:41.341Z,0
2017-09-06T01:17:40.715Z,0
2017-09-06T01:18:41.000Z,0
2017-09-06T01:19:40.978Z,0
2017-09-06T01:20:40.970Z,0
2017-09-06T01:21:40.944Z,0
2017-09-06T01:22:40.310Z,0
2017-09-06T01:23:40.949Z,0
2017-09-06T01:24:40.879Z,0
2017-09-06T01:25:40.861Z,0
2017-09-06T01:26:40.901Z,0
2017-09-06T01:27:40.874Z,0
2017-09-06T01:28:40.505Z,0
2017-09-06T01:29:40.473Z,0
2017-09-06T01:30:40.453Z,0
2017-09-06T01:31:40.747Z,0
2017-09-06T01:32:40.734Z,0
2017-09-06T01:33:40.699Z,0
2017-09-06T01:34:40.686Z,0
2017-09-06T01:35:40.683Z,0
2017-09-06T01:36:40.657Z,0
2017-09-06T01:37:40.626Z,0
2017-09-06T01:38:40.612Z,0
2017-09-06T01:39:40.332Z,0
2017-09-06T01:40:40.655Z,0
2017-09-06T01:41:40.551Z,0
2017-09-06T01:42:40.529Z,0
2017-09-06T01:43:40.204Z,0
2017-09-06T01:44:40.495Z,0
2017-09-06T01:45:40.470Z,0
2017-09-06T01:46:40.450Z,0
2017-09-06T01:47:40.478Z,0
2017-09-06T01:48:40.414Z,0
2017-09-06T01:49:40.079Z,0
2017-09-06T01:50:40.428Z,0
2017-09-06T01:51:40.352Z,0
2017-09-06T01:52:40.330Z,0
2017-09-06T01:53:39.995Z,0
2017-09-06T01:54:40.295Z,0
2017-09-06T01:55:40.276Z,0
2017-09-06T01:56:40.263Z,0
2017-09-06T01:57:40.228Z,0
2017-09-06T01:58:39.903Z,0
2017-09-06T01:59:40.196Z,0
2017-09-06T02:00:40.175Z,0
2017-09-06T02:01:40.157Z,0
2017-09-06T02:02:40.141Z,0
2017-09-06T02:03:40.158Z,0
2017-09-06T02:04:39.789Z,0
2017-09-06T02:05:40.074Z,0
2017-09-06T02:06:40.153Z,0
2017-09-06T02:07:40.030Z,0
2017-09-06T02:08:40.016Z,0
2017-09-06T02:09:40.043Z,0
2017-09-06T02:10:39.972Z,0
2017-09-06T02:11:39.648Z,0
2017-09-06T02:12:39.932Z,0
2017-09-06T02:13:39.602Z,0
2017-09-06T02:14:39.885Z,0
2017-09-06T02:15:39.878Z,0
2017-09-06T02:16:39.856Z,0
2017-09-06T02:17:39.834Z,0
2017-09-06T02:18:39.815Z,0
2017-09-06T02:19:39.791Z,0
2017-09-06T02:20:39.829Z,0
2017-09-06T02:21:39.751Z,0
2017-09-06T02:22:39.736Z,0
2017-09-06T02:23:39.760Z,0
2017-09-06T02:24:39.689Z,0
2017-09-06T02:25:39.680Z,0
2017-09-06T02:26:39.654Z,0
2017-09-06T02:27:39.629Z,0
2017-09-06T02:28:39.606Z,0
2017-09-06T02:29:39.594Z,0
2017-09-06T02:30:39.578Z,0
2017-09-06T02:31:39.602Z,0
2017-09-06T02:32:39.530Z,0
2017-09-06T02:33:39.563Z,0
2017-09-06T02:34:39.491Z,0
2017-09-06T02:35:39.477Z,0
2017-09-06T02:36:39.450Z,0
2017-09-06T02:37:39.437Z,0
2017-09-06T02:38:39.406Z,0
2017-09-06T02:39:39.092Z,0
2017-09-06T02:40:39.368Z,0
2017-09-06T02:41:39.358Z,0
2017-09-06T02:42:39.335Z,0
2017-09-06T02:43:39.308Z,0
2017-09-06T02:44:38.998Z,0
2017-09-06T02:45:39.277Z,0
2017-09-06T02:46:39.250Z,0
2017-09-06T02:47:39.235Z,0
2017-09-06T02:48:39.208Z,0
2017-09-06T02:49:39.196Z,0
2017-09-06T02:50:39.179Z,0
2017-09-06T02:51:39.149Z,0
2017-09-06T02:52:39.187Z,0
2017-09-06T02:53:39.114Z,0
2017-09-06T02:54:38.480Z,0
2017-09-06T02:55:38.764Z,0
2017-09-06T02:56:39.046Z,0
2017-09-06T02:57:39.082Z,0
2017-09-06T02:58:39.007Z,0
2017-09-06T02:59:38.982Z,0
2017-09-06T03:00:38.657Z,0
2017-09-06T03:01:38.948Z,0
2017-09-06T03:02:38.661Z,0
2017-09-06T03:03:38.957Z,0
2017-09-06T03:04:38.944Z,0
2017-09-06T03:05:38.863Z,0
2017-09-06T03:06:38.854Z,0
2017-09-06T03:07:38.829Z,0
2017-09-06T03:08:38.861Z,0
2017-09-06T03:09:38.788Z,0
2017-09-06T03:10:38.507Z,0
2017-09-06T03:11:38.748Z,0
2017-09-06T03:12:38.731Z,0
2017-09-06T03:13:38.711Z,0
2017-09-06T03:14:38.696Z,0
2017-09-06T03:15:38.719Z,0
2017-09-06T03:16:38.649Z,0
2017-09-06T03:17:38.315Z,0
2017-09-06T03:18:38.609Z,0
2017-09-06T03:19:38.586Z,0
2017-09-06T03:20:38.565Z,0
2017-09-06T03:21:38.556Z,0
2017-09-06T03:22:38.530Z,0
2017-09-06T03:23:38.507Z,0
2017-09-06T03:24:38.486Z,0
2017-09-06T03:25:38.463Z,0
2017-09-06T03:26:38.443Z,0
2017-09-06T03:27:38.417Z,0
2017-09-06T03:28:38.401Z,0
2017-09-06T03:29:38.076Z,0
2017-09-06T03:30:38.372Z,0
2017-09-06T03:31:38.349Z,0
2017-09-06T03:32:38.320Z,0
2017-09-06T03:33:38.301Z,0
2017-09-06T03:34:38.022Z,0
2017-09-06T03:35:38.258Z,0
2017-09-06T03:36:38.243Z,0
2017-09-06T03:37:38.230Z,0
2017-09-06T03:38:38.217Z,0
2017-09-06T03:39:38.326Z,0
2017-09-06T03:40:38.156Z,0
2017-09-06T03:41:38.198Z,0
2017-09-06T03:42:38.124Z,0
2017-09-06T03:43:38.107Z,0
2017-09-06T03:44:38.085Z,0
2017-09-06T03:45:38.052Z,0
2017-09-06T03:46:38.035Z,0
2017-09-06T03:47:37.707Z,0
2017-09-06T03:48:38.009Z,0
2017-09-06T03:49:37.983Z,0
2017-09-06T03:50:37.962Z,0
2017-09-06T03:51:37.954Z,0
2017-09-06T03:52:37.922Z,0
2017-09-06T03:53:37.897Z,0
2017-09-06T03:54:37.562Z,0
2017-09-06T03:55:37.854Z,0
2017-09-06T03:56:37.841Z,0
2017-09-06T03:57:37.818Z,0
2017-09-06T03:58:37.795Z,0
2017-09-06T03:59:37.773Z,0
2017-09-06T04:00:37.764Z,0
2017-09-06T04:01:37.743Z,0
2017-09-06T04:02:37.409Z,0
2017-09-06T04:03:37.696Z,0
2017-09-06T04:04:37.703Z,0
2017-09-06T04:05:37.654Z,0
2017-09-06T04:06:37.327Z,0
2017-09-06T04:07:37.619Z,0
2017-09-06T04:08:37.599Z,0
2017-09-06T04:09:37.572Z,0
2017-09-06T04:10:37.554Z,0
2017-09-06T04:11:36.921Z,0
2017-09-06T04:12:37.518Z,0
2017-09-06T04:13:37.545Z,0
2017-09-06T04:14:37.471Z,0
2017-09-06T04:15:37.149Z,0
2017-09-06T04:16:37.121Z,0
2017-09-06T04:17:37.413Z,0
2017-09-06T04:18:37.392Z,0
2017-09-06T04:19:37.389Z,0
2017-09-06T04:20:37.361Z,0
2017-09-06T04:21:37.337Z,0
2017-09-06T04:22:37.322Z,0
2017-09-06T04:23:37.294Z,0
2017-09-06T04:24:37.281Z,4
2017-09-06T04:25:37.248Z,4
2017-09-06T04:26:37.296Z,4
2017-09-06T04:27:37.218Z,4
2017-09-06T04:28:37.186Z,8
2017-09-06T04:29:37.178Z,4
2017-09-06T04:30:37.149Z,8
2017-09-06T04:31:37.128Z,8
2017-09-06T04:32:37.113Z,12
2017-09-06T04:33:37.089Z,8
2017-09-06T04:34:37.125Z,12
2017-09-06T04:35:37.055Z,16
2017-09-06T04:36:37.038Z,20
2017-09-06T04:37:37.021Z,20
2017-09-06T04:38:36.990Z,20
2017-09-06T04:39:36.980Z,20
2017-09-06T04:40:36.948Z,24
2017-09-06T04:41:36.321Z,28
2017-09-06T04:42:36.653Z,32
2017-09-06T04:43:36.884Z,32
2017-09-06T04:44:36.917Z,28
2017-09-06T04:45:36.850Z,36
2017-09-06T04:46:36.829Z,44
2017-09-06T04:47:36.816Z,60
2017-09-06T04:48:36.790Z,72
2017-09-06T04:49:36.769Z,88
2017-09-06T04:50:36.758Z,104
2017-09-06T04:51:36.726Z,116
2017-09-06T04:52:36.705Z,132
2017-09-06T04:53:36.696Z,148
2017-09-06T04:54:36.670Z,144
2017-09-06T04:55:36.648Z,148
2017-09-06T04:56:36.638Z,156
2017-09-06T04:57:36.611Z,192
2017-09-06T04:58:36.587Z,216
2017-09-06T04:59:36.310Z,232
2017-09-06T05:00:36.235Z,252
2017-09-06T05:01:36.526Z,280
2017-09-06T05:02:36.555Z,292
2017-09-06T05:03:36.486Z,260
2017-09-06T05:04:36.467Z,280
2017-09-06T05:05:36.457Z,284
2017-09-06T05:06:36.118Z,328
2017-09-06T05:07:36.400Z,388
2017-09-06T05:08:37.630Z,388
2017-09-06T05:09:36.368Z,352
2017-09-06T05:10:36.345Z,360
2017-09-06T05:11:36.322Z,380
2017-09-06T05:12:35.996Z,472
2017-09-06T05:13:36.285Z,504
2017-09-06T05:14:36.257Z,432
2017-09-06T05:15:36.241Z,352
2017-09-06T05:16:36.234Z,312
2017-09-06T05:17:36.197Z,336
2017-09-06T05:18:36.183Z,328
2017-09-06T05:19:36.152Z,392
2017-09-06T05:20:36.147Z,412
2017-09-06T05:21:36.130Z,484
2017-09-06T05:22:35.793Z,396
2017-09-06T05:23:36.081Z,372
2017-09-06T05:24:35.748Z,388
2017-09-06T05:25:36.044Z,356
2017-09-06T05:26:36.016Z,440
2017-09-06T05:27:35.997Z,500
2017-09-06T05:28:35.977Z,536
2017-09-06T05:29:35.960Z,568
2017-09-06T05:30:35.939Z,728
2017-09-06T05:31:35.913Z,908
2017-09-06T05:32:35.900Z,1096
2017-09-06T05:33:35.913Z,1176
2017-09-06T05:34:35.859Z,1296
2017-09-06T05:35:35.845Z,1512
2017-09-06T05:36:35.867Z,1788
2017-09-06T05:37:35.854Z,1772
2017-09-06T05:38:35.794Z,1892
2017-09-06T05:39:35.755Z,2320
2017-09-06T05:40:35.729Z,2568
2017-09-06T05:41:35.720Z,2036
2017-09-06T05:42:35.696Z,1992
2017-09-06T05:43:35.669Z,1752
2017-09-06T05:44:35.651Z,2004
2017-09-06T05:45:35.639Z,1988
2017-09-06T05:46:35.614Z,2012
2017-09-06T05:47:35.285Z,2020
2017-09-06T05:48:35.823Z,2144
2017-09-06T05:49:35.560Z,2176
2017-09-06T05:50:35.278Z,2112
2017-09-06T05:51:35.509Z,2276
2017-09-06T05:52:35.498Z,2276
2017-09-06T05:53:35.473Z,2308
2017-09-06T05:54:50.062Z,2372
2017-09-06T05:55:35.430Z,2152
2017-09-06T05:56:35.414Z,1952
2017-09-06T05:57:35.386Z,1556
2017-09-06T05:58:35.369Z,1880
2017-09-06T05:59:35.350Z,1412
2017-09-06T06:00:35.329Z,1492
2017-09-06T06:01:35.308Z,1992
2017-09-06T06:02:35.291Z,2252
2017-09-06T06:03:35.271Z,2860
2017-09-06T06:04:35.248Z,3228
2017-09-06T06:05:35.235Z,3848
2017-09-06T06:06:35.209Z,3884
2017-09-06T06:07:35.190Z,4068
2017-09-06T06:08:35.176Z,4356
2017-09-06T06:09:35.156Z,4576
2017-09-06T06:10:35.137Z,4532
2017-09-06T06:11:35.115Z,6472
2017-09-06T06:12:35.183Z,4676
2017-09-06T06:13:35.069Z,4532
2017-09-06T06:14:35.047Z,5972
2017-09-06T06:15:35.024Z,7108
2017-09-06T06:16:35.061Z,7432
2017-09-06T06:17:34.989Z,7268
2017-09-06T06:18:34.664Z,6424
2017-09-06T06:19:34.951Z,5788
2017-09-06T06:20:34.928Z,4992
2017-09-06T06:21:34.919Z,5076
2017-09-06T06:22:34.593Z,4060
2017-09-06T06:23:34.872Z,2984
2017-09-06T06:24:34.847Z,2180
2017-09-06T06:25:34.832Z,1928
2017-09-06T06:26:34.516Z,1456
2017-09-06T06:27:34.794Z,1260
2017-09-06T06:28:34.770Z,1208
2017-09-06T06:29:34.754Z,1348
2017-09-06T06:30:34.736Z,2500
2017-09-06T06:31:34.715Z,3272
2017-09-06T06:32:34.391Z,2144
2017-09-06T06:33:34.366Z,1356
2017-09-06T06:34:34.665Z,1256
2017-09-06T06:35:34.637Z,1248
2017-09-06T06:36:34.632Z,1712
2017-09-06T06:37:34.603Z,1912
2017-09-06T06:38:34.577Z,2372
2017-09-06T06:39:34.561Z,3376
2017-09-06T06:40:34.532Z,4424
2017-09-06T06:41:34.216Z,3324
2017-09-06T06:42:34.191Z,2592
2017-09-06T06:43:34.169Z,1936
2017-09-06T06:44:34.486Z,2028
2017-09-06T06:45:34.445Z,1908
2017-09-06T06:46:34.118Z,2196
2017-09-06T06:47:34.097Z,2284
2017-09-06T06:48:34.376Z,3172
2017-09-06T06:49:34.068Z,3228
2017-09-06T06:50:34.028Z,4668
2017-09-06T06:51:34.322Z,4376
2017-09-06T06:52:34.305Z,5408
2017-09-06T06:53:33.978Z,3440
2017-09-06T06:54:33.954Z,3204
2017-09-06T06:55:33.933Z,3712
2017-09-06T06:56:34.271Z,3828
2017-09-06T06:57:33.908Z,5356
2017-09-06T06:58:33.871Z,5068
2017-09-06T06:59:33.856Z,4600
2017-09-06T07:00:34.247Z,4972
2017-09-06T07:01:33.818Z,3744
2017-09-06T07:02:34.135Z,3544
2017-09-06T07:03:33.468Z,3644
2017-09-06T07:04:34.107Z,3840
2017-09-06T07:05:34.042Z,3220
2017-09-06T07:06:33.713Z,4124
2017-09-06T07:07:33.695Z,4192
2017-09-06T07:08:33.983Z,6736
2017-09-06T07:09:34.111Z,5308
2017-09-06T07:10:33.945Z,4900
2017-09-06T07:11:33.934Z,3420
2017-09-06T07:12:33.599Z,2712
2017-09-06T07:13:33.681Z,2840
2017-09-06T07:14:32.986Z,2892
2017-09-06T07:15:33.847Z,2916
2017-09-06T07:16:33.509Z,3576
2017-09-06T07:17:33.810Z,3760
2017-09-06T07:18:33.469Z,4552
2017-09-06T07:19:33.760Z,6704
2017-09-06T07:20:33.945Z,6456
2017-09-06T07:21:33.420Z,5180
2017-09-06T07:22:33.449Z,4804
2017-09-06T07:23:33.687Z,5136
2017-09-06T07:24:32.800Z,5404
2017-09-06T07:25:33.743Z,6480
2017-09-06T07:26:33.446Z,7780
2017-09-06T07:27:33.295Z,8604
2017-09-06T07:28:33.279Z,10856
2017-09-06T07:29:33.569Z,12624
2017-09-06T07:30:33.747Z,11700
2017-09-06T07:31:32.914Z,11440
2017-09-06T07:32:33.194Z,9244
2017-09-06T07:33:33.198Z,11004
2017-09-06T07:34:32.969Z,9272
2017-09-06T07:35:32.835Z,10380
2017-09-06T07:36:33.432Z,14400
2017-09-06T07:37:33.110Z,21472
2017-09-06T07:38:33.384Z,22752
2017-09-06T07:39:33.362Z,21760
2017-09-06T07:40:33.149Z,13048
2017-09-06T07:41:33.030Z,11152
2017-09-06T07:42:33.312Z,7540
2017-09-06T07:43:33.450Z,6240
2017-09-06T07:44:32.964Z,6056
2017-09-06T07:45:32.952Z,7020
2017-09-06T07:46:33.022Z,6036
2017-09-06T07:47:33.322Z,6276
2017-09-06T07:48:33.241Z,8412
2017-09-06T07:49:32.570Z,5368
2017-09-06T07:50:32.845Z,2556
2017-09-06T07:51:32.535Z,2952
2017-09-06T07:52:33.116Z,3376
2017-09-06T07:53:32.814Z,3408
2017-09-06T07:54:32.480Z,2832
2017-09-06T07:55:32.455Z,2572
2017-09-06T07:56:32.611Z,3068
2017-09-06T07:57:32.866Z,5592
2017-09-06T07:58:32.552Z,5776
2017-09-06T07:59:32.377Z,3640
2017-09-06T08:00:32.660Z,3140
2017-09-06T08:01:32.488Z,3972
2017-09-06T08:02:32.318Z,4248
2017-09-06T08:03:32.281Z,4196
2017-09-06T08:04:32.782Z,5012
2017-09-06T08:05:32.560Z,5848
2017-09-06T08:06:32.689Z,7428
2017-09-06T08:07:32.627Z,4732
2017-09-06T08:08:32.191Z,3532
2017-09-06T08:09:32.479Z,2868
2017-09-06T08:10:32.500Z,3120
2017-09-06T08:11:32.131Z,2660
2017-09-06T08:12:32.522Z,2588
2017-09-06T08:13:32.486Z,5448
2017-09-06T08:14:32.181Z,8692
2017-09-06T08:15:32.070Z,8892
2017-09-06T08:16:32.034Z,7944
2017-09-06T08:17:32.106Z,6144
2017-09-06T08:18:31.703Z,6036
2017-09-06T08:19:31.979Z,6844
2017-09-06T08:20:32.098Z,8184
2017-09-06T08:21:32.278Z,8024
2017-09-06T08:22:32.253Z,4820
2017-09-06T08:23:32.496Z,3908
2017-09-06T08:24:32.475Z,4028
2017-09-06T08:25:32.604Z,5288
2017-09-06T08:26:32.478Z,4476
2017-09-06T08:27:32.576Z,7704
2017-09-06T08:28:31.774Z,7184
2017-09-06T08:29:32.169Z,8840
2017-09-06T08:30:32.502Z,6540
2017-09-06T08:31:32.433Z,6104
2017-09-06T08:32:32.418Z,5636
2017-09-06T08:33:32.438Z,6304
2017-09-06T08:34:32.417Z,7692
2017-09-06T08:35:32.255Z,6016
2017-09-06T08:36:32.230Z,6072
2017-09-06T08:37:32.418Z,5452
2017-09-06T08:38:32.496Z,4824
2017-09-06T08:39:32.171Z,4940
2017-09-06T08:40:32.183Z,4284
2017-09-06T08:41:31.918Z,4020
2017-09-06T08:42:32.112Z,4232
2017-09-06T08:43:32.200Z,3448
2017-09-06T08:44:31.773Z,2796
2017-09-06T08:45:32.081Z,2848
2017-09-06T08:46:32.126Z,3408
2017-09-06T08:47:31.811Z,3352
2017-09-06T08:48:32.080Z,4224
2017-09-06T08:49:31.813Z,4044
2017-09-06T08:50:31.701Z,4084
2017-09-06T08:51:31.830Z,4488
2017-09-06T08:52:31.593Z,7568
2017-09-06T08:53:31.270Z,7816
2017-09-06T08:54:31.868Z,7104
2017-09-06T08:55:31.544Z,8656
2017-09-06T08:56:31.518Z,10676
2017-09-06T08:57:31.300Z,8392
2017-09-06T08:58:31.178Z,9900
2017-09-06T08:59:31.765Z,12488
2017-09-06T09:00:31.892Z,12692
2017-09-06T09:01:31.513Z,11212
2017-09-06T09:02:31.695Z,12648
2017-09-06T09:03:31.679Z,13488
2017-09-06T09:04:31.495Z,14248
2017-09-06T09:05:31.344Z,13024
2017-09-06T09:06:31.314Z,13028
2017-09-06T09:07:31.311Z,14916
2017-09-06T09:08:31.270Z,12032
2017-09-06T09:09:31.801Z,11320
2017-09-06T09:10:31.286Z,6776
2017-09-06T09:11:31.238Z,4616
2017-09-06T09:12:31.199Z,5148
2017-09-06T09:13:31.584Z,8660
2017-09-06T09:14:31.468Z,7388
2017-09-06T09:15:31.435Z,6756
2017-09-06T09:16:31.422Z,9664
2017-09-06T09:17:30.775Z,10196
2017-09-06T09:18:30.819Z,8936
2017-09-06T09:19:31.202Z,6856
2017-09-06T09:20:31.040Z,5368
2017-09-06T09:21:31.308Z,6920
2017-09-06T09:22:30.901Z,9268
2017-09-06T09:23:30.966Z,9424
2017-09-06T09:24:31.043Z,10748
2017-09-06T09:25:30.972Z,11692
2017-09-06T09:26:30.690Z,10616
2017-09-06T09:27:30.318Z,11728
2017-09-06T09:28:30.258Z,12320
2017-09-06T09:29:30.553Z,13824
2017-09-06T09:30:30.521Z,16212
2017-09-06T09:31:30.596Z,16212
2017-09-06T09:32:30.778Z,10036
2017-09-06T09:33:30.757Z,6600
2017-09-06T09:34:31.048Z,6228
2017-09-06T09:35:30.630Z,5860
2017-09-06T09:36:30.708Z,7420
2017-09-06T09:37:30.480Z,9888
2017-09-06T09:38:30.495Z,10928
2017-09-06T09:39:30.784Z,11840
2017-09-06T09:40:30.359Z,11888
2017-09-06T09:41:30.641Z,12028
2017-09-06T09:42:30.484Z,12484
2017-09-06T09:43:30.146Z,13732
2017-09-06T09:44:30.682Z,14156
2017-09-06T09:45:30.822Z,14688
2017-09-06T09:46:30.897Z,14172
2017-09-06T09:47:30.772Z,14168
2017-09-06T09:48:30.749Z,15056
2017-09-06T09:49:30.888Z,15640
2017-09-06T09:50:30.712Z,14948
2017-09-06T09:51:30.787Z,21888
2017-09-06T09:52:30.364Z,22816
2017-09-06T09:53:30.651Z,31072
2017-09-06T09:54:30.826Z,28192
2017-09-06T09:55:30.623Z,28736
2017-09-06T09:56:30.690Z,31840
2017-09-06T09:57:30.664Z,26880
2017-09-06T09:58:30.238Z,23968
2017-09-06T09:59:30.793Z,21728
2017-09-06T10:00:30.403Z,16188
2017-09-06T10:01:30.484Z,14188
2017-09-06T10:02:30.413Z,14048
2017-09-06T10:03:30.549Z,14092
2017-09-06T10:04:30.427Z,15296
2017-09-06T10:05:30.107Z,14472
2017-09-06T10:06:30.391Z,13220
2017-09-06T10:07:30.422Z,12984
2017-09-06T10:08:30.192Z,13920
2017-09-06T10:09:30.179Z,14396
2017-09-06T10:10:30.464Z,17984
2017-09-06T10:11:30.305Z,26912
2017-09-06T10:12:30.274Z,19488
2017-09-06T10:13:30.410Z,21856
2017-09-06T10:14:30.234Z,28096
2017-09-06T10:15:30.252Z,20928
2017-09-06T10:16:29.890Z,24384
2017-09-06T10:17:30.179Z,17888
2017-09-06T10:18:30.164Z,16224
2017-09-06T10:19:30.131Z,16728
2017-09-06T10:20:30.318Z,17376
2017-09-06T10:21:29.987Z,19584
2017-09-06T10:22:30.084Z,20352
2017-09-06T10:23:30.265Z,21248
2017-09-06T10:24:30.041Z,21536
2017-09-06T10:25:30.024Z,20640
2017-09-06T10:26:30.159Z,19936
2017-09-06T10:27:30.232Z,18880
2017-09-06T10:28:30.262Z,18912
2017-09-06T10:29:29.941Z,16428
2017-09-06T10:30:29.982Z,15788
2017-09-06T10:31:30.054Z,14324
2017-09-06T10:32:30.181Z,12228
2017-09-06T10:33:29.871Z,11880
2017-09-06T10:34:29.943Z,12344
2017-09-06T10:35:30.030Z,10628
2017-09-06T10:36:29.806Z,10432
2017-09-06T10:37:29.785Z,9748
2017-09-06T10:38:29.770Z,9092
2017-09-06T10:39:29.747Z,8936
2017-09-06T10:40:29.742Z,8576
2017-09-06T10:41:30.062Z,9104
2017-09-06T10:42:29.785Z,8944
2017-09-06T10:43:29.780Z,9900
2017-09-06T10:44:29.653Z,11400
2017-09-06T10:45:29.633Z,12196
2017-09-06T10:46:29.766Z,13988
2017-09-06T10:47:29.603Z,16056
2017-09-06T10:48:29.575Z,13660
2017-09-06T10:49:29.342Z,15732
2017-09-06T10:50:29.531Z,13312
2017-09-06T10:51:29.828Z,14008
2017-09-06T10:52:29.500Z,13396
2017-09-06T10:53:29.264Z,11316
2017-09-06T10:54:29.452Z,11324
2017-09-06T10:55:29.540Z,10176
2017-09-06T10:56:29.576Z,10172
2017-09-06T10:57:29.105Z,10472
2017-09-06T10:58:29.384Z,11416
2017-09-06T10:59:29.516Z,10552
2017-09-06T11:00:29.348Z,12760
2017-09-06T11:01:29.328Z,11140
2017-09-06T11:02:29.298Z,11268
2017-09-06T11:03:29.282Z,11800
2017-09-06T11:04:29.258Z,12208
2017-09-06T11:05:29.261Z,11564
2017-09-06T11:06:29.238Z,11456
2017-09-06T11:07:29.422Z,12664
2017-09-06T11:08:29.185Z,15640
2017-09-06T11:09:28.861Z,15772
2017-09-06T11:10:29.140Z,13900
2017-09-06T11:11:29.124Z,18016
2017-09-06T11:12:29.112Z,18560
2017-09-06T11:13:28.676Z,20960
2017-09-06T11:14:29.324Z,21600
2017-09-06T11:15:29.207Z,17248
2017-09-06T11:16:29.130Z,19424
2017-09-06T11:17:29.259Z,17568
2017-09-06T11:18:29.093Z,18560
2017-09-06T11:19:29.084Z,18496
2017-09-06T11:20:29.107Z,18432
2017-09-06T11:21:28.628Z,11592
2017-09-06T11:22:28.932Z,9160
2017-09-06T11:23:28.901Z,10028
2017-09-06T11:24:28.634Z,10796
2017-09-06T11:25:28.873Z,13516
2017-09-06T11:26:28.895Z,17344
2017-09-06T11:27:28.923Z,13592
2017-09-06T11:28:28.818Z,11940
2017-09-06T11:29:29.088Z,10368
2017-09-06T11:30:29.021Z,9980
2017-09-06T11:31:28.610Z,8340
2017-09-06T11:32:29.040Z,8740
2017-09-06T11:33:28.717Z,10308
2017-09-06T11:34:28.744Z,12400
2017-09-06T11:35:28.685Z,14560
2017-09-06T11:36:28.654Z,17472
2017-09-06T11:37:28.842Z,19328
2017-09-06T11:38:28.621Z,15812
2017-09-06T11:39:28.608Z,15536
2017-09-06T11:40:28.596Z,16928
2017-09-06T11:41:28.772Z,16928
2017-09-06T11:42:28.593Z,15832
2017-09-06T11:43:28.832Z,16268
2017-09-06T11:44:28.511Z,16832
2017-09-06T11:45:28.279Z,16204
2017-09-06T11:46:28.573Z,16992
2017-09-06T11:47:28.148Z,18048
2017-09-06T11:48:28.584Z,18720
2017-09-06T11:49:28.153Z,18272
2017-09-06T11:50:28.553Z,17664
2017-09-06T11:51:28.379Z,17024
2017-09-06T11:52:28.054Z,16296
2017-09-06T11:53:28.344Z,15056
2017-09-06T11:54:28.464Z,13020
2017-09-06T11:55:28.312Z,11212
2017-09-06T11:56:28.481Z,10120
2017-09-06T11:57:28.114Z,8460
2017-09-06T11:58:28.265Z,8088
2017-09-06T11:59:28.016Z,7920
2017-09-06T12:00:27.997Z,9380
2017-09-06T12:01:28.333Z,10296
2017-09-06T12:02:28.189Z,11432
2017-09-06T12:03:28.149Z,12584
2017-09-06T12:04:28.241Z,11112
2017-09-06T12:05:28.112Z,8964
2017-09-06T12:06:28.151Z,10760
2017-09-06T12:07:28.236Z,10152
2017-09-06T12:08:28.212Z,10148
2017-09-06T12:09:28.400Z,11044
2017-09-06T12:10:27.875Z,9756
2017-09-06T12:11:28.009Z,8868
2017-09-06T12:12:27.982Z,9592
2017-09-06T12:13:27.673Z,10156
2017-09-06T12:14:27.959Z,9976
2017-09-06T12:15:27.920Z,9724
2017-09-06T12:16:28.061Z,9640
2017-09-06T12:17:27.836Z,10644
2017-09-06T12:18:27.867Z,13304
2017-09-06T12:19:27.857Z,15196
2017-09-06T12:20:28.024Z,15228
2017-09-06T12:21:28.025Z,16300
2017-09-06T12:22:28.100Z,16004
2017-09-06T12:23:27.976Z,15296
2017-09-06T12:24:27.803Z,12740
2017-09-06T12:25:27.730Z,8848
2017-09-06T12:26:27.715Z,6052
2017-09-06T12:27:27.394Z,4888
2017-09-06T12:28:27.480Z,4992
2017-09-06T12:29:27.662Z,6720
2017-09-06T12:30:27.487Z,7620
2017-09-06T12:31:27.626Z,11060
2017-09-06T12:32:27.700Z,14144
2017-09-06T12:33:27.694Z,13688
2017-09-06T12:34:27.471Z,13656
2017-09-06T12:35:27.559Z,10388
2017-09-06T12:36:27.323Z,9120
2017-09-06T12:37:27.193Z,8008
2017-09-06T12:38:27.333Z,6872
2017-09-06T12:39:27.196Z,6552
2017-09-06T12:40:27.604Z,8012
2017-09-06T12:41:27.447Z,10076
2017-09-06T12:42:27.121Z,10340
2017-09-06T12:43:27.242Z,9848
2017-09-06T12:44:26.977Z,9724
2017-09-06T12:45:27.559Z,10540
2017-09-06T12:46:27.497Z,11524
2017-09-06T12:47:27.126Z,12696
2017-09-06T12:48:26.736Z,13848
2017-09-06T12:49:27.034Z,15172
2017-09-06T12:50:27.108Z,15544
2017-09-06T12:51:26.702Z,16032
2017-09-06T12:52:26.777Z,15716
2017-09-06T12:53:26.998Z,14972
2017-09-06T12:54:26.789Z,14228
2017-09-06T12:55:26.247Z,12892
2017-09-06T12:56:26.844Z,10724
2017-09-06T12:57:26.819Z,11620
2017-09-06T12:58:26.196Z,12912
2017-09-06T12:59:26.884Z,13288
2017-09-06T13:00:26.813Z,10728
2017-09-06T13:01:26.747Z,10104
2017-09-06T13:02:26.630Z,6744
2017-09-06T13:03:26.461Z,4856
2017-09-06T13:04:26.234Z,7492
2017-09-06T13:05:26.943Z,8548
2017-09-06T13:06:26.996Z,8380
2017-09-06T13:07:27.038Z,10648
2017-09-06T13:08:27.017Z,11064
2017-09-06T13:09:26.837Z,9560
2017-09-06T13:10:26.321Z,8152
2017-09-06T13:11:26.651Z,4580
2017-09-06T13:12:26.740Z,2352
2017-09-06T13:13:26.712Z,1492
2017-09-06T13:14:26.501Z,1344
2017-09-06T13:15:26.469Z,1800
2017-09-06T13:16:26.768Z,3476
2017-09-06T13:17:26.581Z,3912
2017-09-06T13:18:26.824Z,3528
2017-09-06T13:19:26.873Z,3532
2017-09-06T13:20:26.883Z,4036
2017-09-06T13:21:26.525Z,3848
2017-09-06T13:22:26.385Z,4048
2017-09-06T13:23:26.463Z,4272
2017-09-06T13:24:26.009Z,3664
2017-09-06T13:25:25.811Z,3252
2017-09-06T13:26:26.559Z,3208
2017-09-06T13:27:25.932Z,3280
2017-09-06T13:28:26.315Z,3732
2017-09-06T13:29:26.253Z,4400
2017-09-06T13:30:26.479Z,5320
2017-09-06T13:31:26.146Z,5640
2017-09-06T13:32:26.140Z,6240
2017-09-06T13:33:25.857Z,7152
2017-09-06T13:34:25.683Z,8216
2017-09-06T13:35:26.386Z,9400
2017-09-06T13:36:26.248Z,10556
2017-09-06T13:37:26.230Z,11288
2017-09-06T13:38:25.705Z,12176
2017-09-06T13:39:25.776Z,13008
2017-09-06T13:40:26.017Z,13432
2017-09-06T13:41:26.189Z,13340